Time;durP1;ratioP1;P1;durP2;ratioP2;P2;SDS_P1;SDS_P2;PMS_P1;PMS_P2;Temp;Humidity;BMP_temperature;BMP_pressure;BME280_temperature;BME280_humidity;BME280_pressure;Samples;Min_cycle;Max_cycle;Signal;HPM_P1;HPM_P2
2022/03/28 00:00:11;;;;;;;23.90;8.40;;;;;;;6.51;71.46;102613.13;5128402;27;20036;-67
2022/03/28 00:02:40;;;;;;;22.45;8.63;;;;;;;6.50;71.27;102620.97;5124386;27;20082;-67
2022/03/28 00:05:09;;;;;;;21.27;7.30;;;;;;;6.48;71.03;102617.44;5133261;27;20047;-65
2022/03/28 00:07:36;;;;;;;22.63;8.23;;;;;;;6.44;70.93;102632.25;5122454;27;20097;-66
2022/03/28 00:10:06;;;;;;;26.55;8.00;;;;;;;6.42;71.30;102628.72;5131609;27;20762;-66
2022/03/28 00:12:34;;;;;;;26.88;7.88;;;;;;;6.41;71.29;102621.72;5123501;27;20051;-67
2022/03/28 00:15:02;;;;;;;22.98;8.50;;;;;;;6.44;70.98;102620.88;5128925;27;20832;-67
2022/03/28 00:17:32;;;;;;;25.85;8.23;;;;;;;6.43;71.32;102614.75;5120027;27;20036;-67
2022/03/28 00:20:00;;;;;;;25.30;8.02;;;;;;;6.42;71.25;102610.38;5126904;27;20058;-67
2022/03/28 00:22:28;;;;;;;22.83;7.35;;;;;;;6.41;71.01;102605.13;5131487;27;20035;-67
2022/03/28 00:24:56;;;;;;;22.30;8.10;;;;;;;6.37;71.36;102596.31;5133497;27;20505;-68
2022/03/28 00:27:23;;;;;;;18.40;8.05;;;;;;;6.34;71.40;102591.91;5131724;27;20535;-67
2022/03/28 00:29:50;;;;;;;25.48;8.10;;;;;;;6.33;71.58;102587.53;5132033;27;20051;-67
2022/03/28 00:32:17;;;;;;;19.27;7.90;;;;;;;6.35;72.06;102588.44;5122791;27;20035;-66
2022/03/28 00:34:44;;;;;;;22.67;8.07;;;;;;;6.37;72.09;102583.22;5126233;27;20520;-67
2022/03/28 00:37:11;;;;;;;21.27;7.57;;;;;;;6.39;72.29;102586.75;5125701;27;20463;-67
2022/03/28 00:39:38;;;;;;;27.45;7.65;;;;;;;6.37;72.00;102573.63;5113761;27;20068;-67
2022/03/28 00:42:05;;;;;;;19.02;7.40;;;;;;;6.36;72.08;102571.88;5121590;27;20035;-66
2022/03/28 00:44:34;;;;;;;21.77;8.13;;;;;;;6.36;72.29;102576.19;5127072;27;20047;-66
2022/03/28 00:47:03;;;;;;;23.92;8.00;;;;;;;6.35;72.60;102574.47;5123165;27;20070;-66
2022/03/28 00:49:30;;;;;;;23.60;7.65;;;;;;;6.31;72.95;102564.78;5125706;27;20031;-66
2022/03/28 00:51:59;;;;;;;22.35;6.88;;;;;;;6.30;73.21;102561.31;5129521;27;20044;-66
2022/03/28 00:54:27;;;;;;;19.83;7.70;;;;;;;6.30;73.30;102555.16;5118617;27;20040;-65
2022/03/28 00:56:55;;;;;;;22.52;7.90;;;;;;;6.28;73.54;102549.91;5121384;27;20579;-66
2022/03/28 00:59:22;;;;;;;25.10;6.97;;;;;;;6.29;74.07;102543.81;5133114;27;20048;-66
2022/03/28 01:01:50;;;;;;;24.33;8.63;;;;;;;6.29;74.16;102545.53;5123881;27;20051;-66
2022/03/28 01:04:17;;;;;;;19.95;7.22;;;;;;;6.28;74.47;102539.44;5125211;27;20077;-66
2022/03/28 01:06:44;;;;;;;21.08;7.55;;;;;;;6.27;74.59;102537.69;5145884;27;20505;-66
2022/03/28 01:09:11;;;;;;;26.38;7.47;;;;;;;6.25;74.10;102539.38;5138500;27;20035;-67
2022/03/28 01:11:42;;;;;;;24.55;7.88;;;;;;;6.20;74.26;102531.47;5127230;27;20097;-67
2022/03/28 01:14:10;;;;;;;25.15;7.38;;;;;;;6.19;74.80;102534.94;5122027;27;20040;-67
2022/03/28 01:19:24;;;;;;;26.00;7.65;;;;;;;6.14;74.77;102533.09;5126765;27;20119;-67
2022/03/28 01:21:52;;;;;;;25.88;7.88;;;;;;;6.11;75.12;102533.94;5123432;27;20040;-65
2022/03/28 01:24:19;;;;;;;24.23;7.88;;;;;;;6.08;75.28;102525.16;5125273;27;20049;-66
2022/03/28 01:26:50;;;;;;;25.27;7.82;;;;;;;6.04;75.37;102519.88;5127625;27;20047;-65
2022/03/28 01:29:17;;;;;;;29.13;8.10;;;;;;;6.03;75.20;102514.63;5130104;27;20032;-67
2022/03/28 01:31:44;;;;;;;23.58;8.13;;;;;;;5.97;75.57;102518.00;5118819;27;20493;-66
2022/03/28 01:34:21;;;;;;;24.17;7.70;;;;;;;5.97;76.02;102518.00;5131221;27;20051;-65
2022/03/28 01:36:49;;;;;;;27.58;8.68;;;;;;;5.96;76.26;102513.59;5125932;27;20044;-66
2022/03/28 01:39:19;;;;;;;25.90;8.40;;;;;;;5.96;76.02;102517.94;5112876;27;20532;-66
2022/03/28 01:41:46;;;;;;;24.33;7.68;;;;;;;5.93;76.02;102503.06;5121092;27;20126;-66
2022/03/28 01:44:15;;;;;;;24.50;8.45;;;;;;;5.89;75.63;102512.63;5128198;27;20795;-65
2022/03/28 01:46:45;;;;;;;19.38;8.45;;;;;;;5.85;75.56;102504.69;5124989;27;20501;-66
2022/03/28 01:49:17;;;;;;;21.67;8.07;;;;;;;5.81;75.66;102510.72;5121821;27;20111;-66
2022/03/28 01:51:46;;;;;;;25.13;8.40;;;;;;;5.77;75.61;102501.94;5125553;27;20050;-66
2022/03/28 01:54:14;;;;;;;23.33;8.13;;;;;;;5.74;75.52;102509.78;5119267;27;20044;-67
2022/03/28 01:56:42;;;;;;;27.80;8.48;;;;;;;5.71;75.71;102507.97;5116372;27;20040;-66
2022/03/28 01:59:09;;;;;;;23.65;8.93;;;;;;;5.69;75.69;102507.09;5130848;27;20036;-67
2022/03/28 02:01:40;;;;;;;24.83;8.43;;;;;;;5.67;75.54;102507.88;5118160;27;20036;-66
2022/03/28 02:04:07;;;;;;;23.08;8.35;;;;;;;5.65;75.76;102500.03;5116640;27;20046;-66
2022/03/28 02:06:35;;;;;;;28.60;8.65;;;;;;;5.64;76.49;102494.78;5130681;27;22436;-66
2022/03/28 02:09:03;;;;;;;27.90;8.63;;;;;;;5.64;76.36;102485.16;5126809;27;20044;-66
2022/03/28 02:11:30;;;;;;;25.73;8.80;;;;;;;5.62;76.55;102489.50;5129617;27;20504;-65
2022/03/28 02:13:58;;;;;;;24.95;8.75;;;;;;;5.59;76.64;102487.72;5136124;27;20039;-66
2022/03/28 02:16:25;;;;;;;29.63;9.25;;;;;;;5.54;76.34;102489.38;5129666;27;20405;-67
2022/03/28 02:18:52;;;;;;;30.90;9.15;;;;;;;5.50;76.69;102497.13;5131908;27;20492;-67
2022/03/28 02:21:19;;;;;;;22.40;8.93;;;;;;;5.43;76.62;102494.41;5126564;27;20036;-67
2022/03/28 02:23:46;;;;;;;30.35;9.57;;;;;;;5.41;76.77;102492.63;5129451;27;20070;-67
2022/03/28 02:26:14;;;;;;;21.58;8.60;;;;;;;5.37;76.66;102488.19;5122642;27;20051;-67
2022/03/28 02:28:41;;;;;;;27.85;9.10;;;;;;;5.35;77.22;102485.56;5126643;27;20040;-67
2022/03/28 02:31:10;;;;;;;25.33;8.55;;;;;;;5.35;78.09;102479.44;5131715;27;20039;-68
2022/03/28 02:33:37;;;;;;;28.40;8.88;;;;;;;5.32;77.82;102475.03;5131271;27;20079;-68
2022/03/28 02:36:05;;;;;;;26.48;9.02;;;;;;;5.31;78.06;102464.56;5123286;27;20115;-67
2022/03/28 02:38:33;;;;;;;26.20;8.75;;;;;;;5.27;77.79;102461.88;5121289;27;20067;-68
2022/03/28 02:41:01;;;;;;;29.42;8.07;;;;;;;5.25;78.10;102467.94;5118468;27;20043;-67
2022/03/28 02:43:29;;;;;;;23.13;8.75;;;;;;;5.22;78.27;102460.03;5116961;27;20577;-66
2022/03/28 02:45:56;;;;;;;30.77;8.38;;;;;;;5.20;78.53;102451.28;5124160;27;20043;-66
2022/03/28 02:48:23;;;;;;;23.70;7.85;;;;;;;5.18;78.57;102443.41;5133825;27;20065;-65
2022/03/28 02:50:51;;;;;;;23.38;8.65;;;;;;;5.18;78.84;102447.78;5121649;27;20420;-65
2022/03/28 02:53:18;;;;;;;24.70;8.05;;;;;;;5.16;78.94;102439.88;5130009;27;20040;-67
2022/03/28 02:55:45;;;;;;;30.35;9.00;;;;;;;5.14;79.09;102438.97;5134187;27;20605;-67
2022/03/28 02:58:15;;;;;;;33.85;8.57;;;;;;;5.12;78.99;102440.69;5135268;27;20127;-67
2022/03/28 03:00:42;;;;;;;28.85;8.65;;;;;;;5.09;79.05;102435.41;5120573;27;20489;-67
2022/03/28 03:03:09;;;;;;;22.83;7.72;;;;;;;5.09;78.99;102436.28;5134466;27;20118;-67
2022/03/28 03:05:37;;;;;;;26.30;9.05;;;;;;;5.07;78.87;102438.00;5134510;27;20083;-68
2022/03/28 03:08:04;;;;;;;24.70;8.45;;;;;;;5.08;79.12;102438.88;5132148;27;20036;-67
2022/03/28 03:10:33;;;;;;;24.33;8.57;;;;;;;5.07;79.31;102438.00;5123445;27;20060;-69
2022/03/28 03:13:01;;;;;;;27.73;8.38;;;;;;;5.07;79.27;102437.09;5132700;27;20040;-68
2022/03/28 03:15:28;;;;;;;24.00;7.53;;;;;;;5.06;79.44;102432.72;5118761;27;20391;-68
2022/03/28 03:17:55;;;;;;;24.52;8.27;;;;;;;5.03;79.09;102432.69;5115493;27;20040;-68
2022/03/28 03:20:22;;;;;;;21.83;7.60;;;;;;;4.99;79.11;102436.97;5117719;27;20044;-68
2022/03/28 03:22:49;;;;;;;28.45;8.00;;;;;;;4.95;78.96;102430.78;5124728;27;20498;-68
2022/03/28 03:25:16;;;;;;;26.40;8.65;;;;;;;4.94;78.96;102438.63;5123695;27;20414;-67
2022/03/28 03:27:43;;;;;;;25.70;7.55;;;;;;;4.89;78.52;102427.19;5132010;27;20055;-67
2022/03/28 03:30:11;;;;;;;25.38;7.90;;;;;;;4.85;78.44;102433.22;5119098;27;20029;-69
2022/03/28 03:32:38;;;;;;;25.90;8.50;;;;;;;4.80;78.61;102433.13;5130710;27;20109;-68
2022/03/28 03:35:07;;;;;;;25.25;7.78;;;;;;;4.74;78.41;102433.00;5127376;27;20157;-68
2022/03/28 03:37:35;;;;;;;25.45;8.40;;;;;;;-147.05;100.00;58721.66;5132743;27;20075;-68
2022/03/28 03:40:07;;;;;;;22.40;8.20;;;;;;;-147.05;100.00;58721.66;5130663;27;20032;-67
2022/03/28 03:42:34;;;;;;;31.00;8.63;;;;;;;-147.05;100.00;58721.66;5124946;27;20031;-68
2022/03/28 03:45:03;;;;;;;20.38;7.68;;;;;;;-147.05;100.00;58721.66;5130607;27;20089;-68
2022/03/28 03:47:30;;;;;;;23.50;8.52;;;;;;;-147.05;100.00;58721.66;5132302;27;20043;-69
2022/03/28 03:49:57;;;;;;;31.40;8.73;;;;;;;-147.05;100.00;58721.66;5128587;27;20048;-68
2022/03/28 03:52:24;;;;;;;25.80;7.95;;;;;;;-147.05;100.00;58721.66;5124637;27;20040;-67
2022/03/28 03:54:51;;;;;;;27.73;8.55;;;;;;;-147.05;100.00;58721.66;5129236;27;20047;-67
2022/03/28 03:57:18;;;;;;;22.95;7.68;;;;;;;-147.05;100.00;58721.66;5127014;27;20043;-67
2022/03/28 03:59:45;;;;;;;21.02;8.55;;;;;;;4.33;78.72;102406.06;5130769;27;20119;-67
2022/03/28 04:02:12;;;;;;;25.67;8.20;;;;;;;4.32;78.98;102403.44;5129218;27;20032;-66
2022/03/28 04:04:40;;;;;;;24.52;7.93;;;;;;;4.25;78.69;102407.66;5129081;27;20043;-66
2022/03/28 04:07:07;;;;;;;27.02;8.10;;;;;;;4.18;78.57;102405.78;5133182;27;20044;-68
2022/03/28 04:09:34;;;;;;;29.33;9.23;;;;;;;4.10;78.61;102409.94;5131335;27;20035;-67
2022/03/28 04:12:02;;;;;;;28.23;8.10;;;;;;;4.06;78.97;102409.00;5121847;27;20047;-67
2022/03/28 04:14:29;;;;;;;26.80;7.97;;;;;;;4.06;79.16;102400.28;5122778;27;20043;-67
2022/03/28 04:16:57;;;;;;;23.50;7.72;;;;;;;4.04;78.80;102406.34;5118066;27;20043;-67
2022/03/28 04:19:25;;;;;;;34.05;8.20;;;;;;;4.02;79.23;102399.34;5122603;27;20115;-68
2022/03/28 04:21:52;;;;;;;23.85;8.40;;;;;;;4.04;79.81;102397.66;5122185;27;20519;-67
2022/03/28 04:24:20;;;;;;;26.00;7.80;;;;;;;4.05;80.23;102394.19;5128519;27;20055;-67
2022/03/28 04:26:47;;;;;;;23.05;7.68;;;;;;;4.05;80.61;102394.19;5116408;27;20035;-67
2022/03/28 04:29:15;;;;;;;25.38;7.45;;;;;;;4.04;81.20;102385.47;5131364;27;20516;-66
2022/03/28 04:31:42;;;;;;;25.95;7.22;;;;;;;4.02;81.24;102381.06;5119561;27;20447;-68
2022/03/28 04:34:09;;;;;;;26.60;7.55;;;;;;;4.02;81.63;102387.16;5121939;27;20460;-69
2022/03/28 04:36:38;;;;;;;29.88;8.15;;;;;;;3.99;81.30;102387.13;5126622;27;20532;-66
2022/03/28 04:39:06;;;;;;;31.05;7.10;;;;;;;3.97;81.09;102388.81;5122699;27;20505;-67
2022/03/28 04:41:33;;;;;;;27.77;8.30;;;;;;;3.95;80.90;102387.00;5120597;27;20498;-66
2022/03/28 04:44:00;;;;;;;24.83;7.45;;;;;;;3.91;81.15;102386.06;5120945;27;20165;-67
2022/03/28 04:46:27;;;;;;;27.58;8.00;;;;;;;4.13;84.66;102383.91;5125166;27;20154;-65
2022/03/28 04:48:54;;;;;;;35.13;8.13;;;;;;;4.48;86.67;102384.63;5128644;27;20044;-66
2022/03/28 04:51:22;;;;;;;26.90;7.20;;;;;;;4.77;86.79;102386.03;5132918;27;20685;-67
2022/03/28 04:53:49;;;;;;;22.48;7.40;;;;;;;5.00;86.38;102383.84;5118448;27;20040;-67
2022/03/28 04:56:16;;;;;;;22.02;6.25;;;;;;;5.13;84.74;102375.34;5131406;27;20044;-67
2022/03/28 04:58:43;;;;;;;18.40;6.05;;;;;;;5.20;83.50;102376.34;5130634;27;20069;-67
2022/03/28 05:01:10;;;;;;;22.13;6.82;;;;;;;5.21;82.73;102374.59;5132000;27;20465;-66
2022/03/28 05:03:37;;;;;;;24.67;7.25;;;;;;;5.22;82.59;102381.59;5132817;27;20507;-66
2022/03/28 05:06:04;;;;;;;29.50;7.55;;;;;;;5.18;82.29;102379.78;5120075;27;20054;-66
2022/03/28 05:08:31;;;;;;;26.52;7.30;;;;;;;5.11;82.22;102376.19;5122853;27;20126;-67
2022/03/28 05:10:58;;;;;;;31.80;6.85;;;;;;;5.09;82.23;102377.88;5122006;27;20040;-66
2022/03/28 05:13:26;;;;;;;29.65;6.70;;;;;;;5.05;82.09;102363.00;5122263;27;20044;-66
2022/03/28 05:15:53;;;;;;;26.58;7.80;;;;;;;5.00;81.68;102364.66;5123205;27;20040;-66
2022/03/28 05:18:20;;;;;;;22.48;7.07;;;;;;;4.98;81.60;102369.88;5114538;27;20221;-67
2022/03/28 05:20:50;;;;;;;22.27;6.07;;;;;;;4.94;81.17;102366.31;5119995;27;20036;-66
2022/03/28 05:23:18;;;;;;;26.23;7.00;;;;;;;4.96;81.13;102363.75;5120231;27;20075;-67
2022/03/28 05:25:45;;;;;;;22.77;7.22;;;;;;;5.01;80.91;102366.44;5130290;27;20047;-67
2022/03/28 05:28:12;;;;;;;28.80;6.90;;;;;;;4.94;80.31;102376.75;5124129;27;20047;-67
2022/03/28 05:30:39;;;;;;;25.95;7.35;;;;;;;4.86;79.84;102372.28;5122420;27;20093;-66
2022/03/28 05:33:08;;;;;;;24.95;7.80;;;;;;;4.71;79.41;102378.97;5129049;27;20511;-68
2022/03/28 05:35:37;;;;;;;27.08;7.30;;;;;;;4.58;79.41;102374.38;5121120;27;20059;-65
2022/03/28 05:38:04;;;;;;;24.25;7.00;;;;;;;4.48;79.74;102375.91;5121556;27;20044;-65
2022/03/28 05:40:32;;;;;;;33.78;8.35;;;;;;;4.39;79.68;102374.00;5121728;27;20044;-66
2022/03/28 05:43:02;;;;;;;25.63;6.95;;;;;;;4.32;79.65;102380.81;5114323;27;20036;-66
2022/03/28 05:45:30;;;;;;;25.90;7.18;;;;;;;4.30;79.76;102374.72;5110802;27;20043;-66
2022/03/28 05:47:57;;;;;;;37.38;7.80;;;;;;;4.32;79.96;102385.16;5110872;27;20386;-66
2022/03/28 05:50:24;;;;;;;32.47;8.02;;;;;;;4.35;79.78;102385.25;5113042;27;20048;-66
2022/03/28 05:52:54;;;;;;;31.13;6.93;;;;;;;4.38;79.69;102379.19;5118113;27;20046;-66
2022/03/28 05:55:22;;;;;;;37.72;8.00;;;;;;;4.40;79.66;102369.66;5130664;27;20042;-67
2022/03/28 05:57:49;;;;;;;26.60;8.00;;;;;;;4.41;79.64;102368.81;5129400;27;20046;-66
2022/03/28 06:00:16;;;;;;;30.40;8.77;;;;;;;4.41;79.83;102367.06;5132239;27;20094;-66
2022/03/28 06:02:44;;;;;;;31.25;8.60;;;;;;;4.43;79.51;102359.25;5133190;27;20085;-65
2022/03/28 06:05:12;;;;;;;25.60;7.63;;;;;;;4.43;79.60;102364.47;5134908;27;20092;-66
2022/03/28 06:07:40;;;;;;;24.48;7.15;;;;;;;4.46;79.57;102356.72;5117569;27;20501;-66
2022/03/28 06:10:08;;;;;;;43.90;17.35;;;;;;;4.49;79.79;102354.19;5112749;27;20454;-67
2022/03/28 06:12:35;;;;;;;32.20;9.13;;;;;;;4.51;79.56;102365.53;5117948;27;20501;-66
2022/03/28 06:15:03;;;;;;;44.13;9.75;;;;;;;4.56;79.41;102368.25;5132931;27;20457;-66
2022/03/28 06:17:30;;;;;;;35.83;8.32;;;;;;;4.61;79.40;102369.19;5120524;27;20043;-67
2022/03/28 06:19:57;;;;;;;26.85;8.15;;;;;;;4.68;79.31;102359.75;5120193;27;20098;-66
2022/03/28 06:22:24;;;;;;;26.25;8.25;;;;;;;4.76;79.72;102360.75;5131437;27;20109;-67
2022/03/28 06:24:51;;;;;;;28.17;7.50;;;;;;;4.82;79.82;102363.50;5126486;27;20050;-66
2022/03/28 06:27:23;;;;;;;35.05;9.38;;;;;;;4.88;79.67;102358.38;5131568;27;20046;-66
2022/03/28 06:29:52;;;;;;;29.30;8.60;;;;;;;4.96;79.29;102356.75;5114845;27;20044;-66
2022/03/28 06:32:19;;;;;;;23.70;8.02;;;;;;;5.06;79.63;102356.91;5132902;27;20040;-67
2022/03/28 06:34:48;;;;;;;23.63;8.25;;;;;;;5.16;79.17;102356.22;5132559;27;20048;-67
2022/03/28 06:37:16;;;;;;;31.92;8.43;;;;;;;5.26;79.27;102352.91;5131146;27;20093;-67
2022/03/28 06:39:43;;;;;;;26.20;7.78;;;;;;;5.36;79.10;102356.56;5132128;27;20497;-67
2022/03/28 06:42:10;;;;;;;21.30;7.25;;;;;;;5.47;78.66;102363.69;5130915;27;20036;-67
2022/03/28 06:44:37;;;;;;;26.38;7.85;;;;;;;5.57;78.89;102361.22;5124539;27;20598;-67
2022/03/28 06:47:05;;;;;;;21.95;7.65;;;;;;;5.67;78.68;102361.34;5112627;27;20098;-67
2022/03/28 06:49:34;;;;;;;24.33;7.35;;;;;;;5.72;78.27;102363.19;5131942;27;20497;-66
2022/03/28 06:52:01;;;;;;;25.83;7.68;;;;;;;5.80;78.04;102358.06;5124054;27;20051;-68
2022/03/28 06:54:28;;;;;;;31.38;7.90;;;;;;;5.83;77.94;102355.50;5114652;27;20119;-67
2022/03/28 06:56:55;;;;;;;24.88;7.40;;;;;;;5.88;77.80;102342.47;5117927;27;20502;-66
2022/03/28 06:59:23;;;;;;;26.92;7.60;;;;;;;5.90;77.68;102349.47;5116993;27;20040;-66
2022/03/28 07:01:50;;;;;;;21.65;8.10;;;;;;;5.99;77.41;102347.81;5121078;27;20520;-67
2022/03/28 07:04:20;;;;;;;26.40;7.68;;;;;;;6.04;77.19;102346.19;5117312;27;20048;-67
2022/03/28 07:06:47;;;;;;;28.27;7.90;;;;;;;6.10;77.03;102346.25;5137196;27;20535;-67
2022/03/28 07:09:14;;;;;;;28.40;7.97;;;;;;;6.15;77.08;102336.75;5135873;27;20050;-66
2022/03/28 07:11:41;;;;;;;24.80;7.30;;;;;;;6.25;77.10;102339.47;5136528;27;20040;-67
2022/03/28 07:14:08;;;;;;;26.55;7.35;;;;;;;6.35;76.88;102331.72;5136911;27;20070;-67
2022/03/28 07:16:36;;;;;;;27.10;8.32;;;;;;;6.47;76.48;102330.09;5136206;27;20085;-66
2022/03/28 07:19:04;;;;;;;24.52;8.07;;;;;;;6.60;76.26;102333.72;5136164;27;20493;-66
2022/03/28 07:21:32;;;;;;;21.73;8.23;;;;;;;6.69;75.91;102336.44;5116065;27;20040;-66
2022/03/28 07:23:59;;;;;;;26.13;9.15;;;;;;;6.79;75.74;102334.78;5116970;27;20055;-67
2022/03/28 07:26:27;;;;;;;29.80;8.70;;;;;;;6.92;75.83;102333.16;5115947;27;20044;-66
2022/03/28 07:28:58;;;;;;;27.17;8.80;;;;;;;7.03;75.47;102325.34;5115559;27;20501;-67
2022/03/28 07:31:25;;;;;;;24.15;8.43;;;;;;;7.17;74.96;102325.50;5115434;27;20048;-67
2022/03/28 07:34:29;;;;;;;24.58;7.93;;;;;;;7.28;74.88;102319.44;5114621;27;20583;-67
2022/03/28 07:36:39;;;;;;;28.83;8.90;;;;;;;7.44;74.56;102316.91;5114796;27;20494;-67
2022/03/28 07:39:06;;;;;;;22.98;8.40;;;;;;;7.60;74.20;102320.50;5115650;27;20117;-67
2022/03/28 07:41:33;;;;;;;20.70;8.90;;;;;;;7.72;73.77;102307.47;5114741;27;20493;-66
2022/03/28 07:44:00;;;;;;;28.38;9.07;;;;;;;7.84;73.50;102309.25;5114794;27;20040;-67
2022/03/28 07:46:27;;;;;;;28.73;9.18;;;;;;;8.00;73.29;102306.72;5114762;27;20124;-67
2022/03/28 07:48:55;;;;;;;25.27;8.98;;;;;;;8.17;72.99;102299.75;5114320;27;20040;-66
2022/03/28 07:51:22;;;;;;;24.75;9.00;;;;;;;8.34;72.43;102309.47;5114287;27;20040;-67
2022/03/28 07:53:49;;;;;;;23.00;8.63;;;;;;;8.48;72.29;102307.75;5119241;27;20489;-67
2022/03/28 07:56:16;;;;;;;32.13;9.60;;;;;;;8.64;71.87;102298.13;5134916;27;20090;-67
2022/03/28 07:58:43;;;;;;;32.22;9.60;;;;;;;8.80;71.39;102292.91;5134679;27;20043;-67
2022/03/28 08:01:10;;;;;;;23.73;9.82;;;;;;;8.95;71.06;102284.16;5132499;27;20043;-67
2022/03/28 08:03:37;;;;;;;23.13;9.73;;;;;;;9.10;70.60;102289.38;5122951;27;20733;-67
2022/03/28 08:06:04;;;;;;;30.27;10.80;;;;;;;9.27;70.15;102288.47;5133706;27;20039;-67
2022/03/28 08:08:32;;;;;;;28.30;10.35;;;;;;;9.41;69.63;102288.47;5133524;27;20063;-67
2022/03/28 08:10:59;;;;;;;26.33;10.30;;;;;;;9.53;69.42;102282.28;5134737;27;20038;-66
2022/03/28 08:13:26;;;;;;;28.98;9.90;;;;;;;9.64;69.05;102277.88;5131852;27;20039;-66
2022/03/28 08:15:53;;;;;;;28.45;10.27;;;;;;;9.77;68.42;102281.31;5133754;27;20040;-67
2022/03/28 08:18:20;;;;;;;30.73;11.52;;;;;;;9.89;68.34;102283.03;5128903;27;20488;-67
2022/03/28 08:20:47;;;;;;;31.33;10.02;;;;;;;10.02;68.14;102273.31;5122916;27;20044;-67
2022/03/28 08:23:16;;;;;;;28.90;11.00;;;;;;;10.16;67.45;102282.00;5133617;27;20036;-67
2022/03/28 08:25:44;;;;;;;28.98;10.80;;;;;;;10.28;67.04;102277.56;5134387;27;20054;-67
2022/03/28 08:28:11;;;;;;;27.50;10.63;;;;;;;10.39;66.39;102281.03;5129928;27;20038;-67
2022/03/28 08:30:38;;;;;;;27.17;11.18;;;;;;;10.52;66.35;102273.91;5118791;27;20040;-68
2022/03/28 08:33:05;;;;;;;133.35;16.80;;;;;;;10.60;65.88;102276.50;5114815;27;20492;-67
2022/03/28 08:35:35;;;;;;;53.25;12.80;;;;;;;10.71;65.99;102274.66;5115424;27;20148;-68
2022/03/28 08:38:02;;;;;;;26.48;11.57;;;;;;;10.86;65.68;102271.88;5126157;27;20044;-66
2022/03/28 08:40:30;;;;;;;46.35;13.18;;;;;;;10.98;65.13;102272.66;5117062;27;20035;-67
2022/03/28 08:42:57;;;;;;;58.75;14.10;;;;;;;11.08;64.64;102276.09;5113789;27;20036;-67
2022/03/28 08:45:24;;;;;;;38.17;11.25;;;;;;;11.18;63.89;102267.22;5124126;27;20515;-66
2022/03/28 08:47:56;;;;;;;31.17;11.43;;;;;;;11.27;63.79;102263.56;5129887;27;20046;-68
2022/03/28 08:50:40;;;;;;;30.27;10.90;;;;;;;11.35;63.91;102269.66;5116067;27;20036;-68
2022/03/28 08:53:07;;;;;;;27.80;10.32;;;;;;;11.42;63.72;102246.69;5119993;27;20575;-68
2022/03/28 08:55:35;;;;;;;32.30;10.93;;;;;;;11.50;63.94;102243.09;5114720;27;20044;-67
2022/03/28 08:58:02;;;;;;;26.02;10.57;;;;;;;11.64;63.43;102255.25;5113334;27;20124;-67
2022/03/28 09:00:30;;;;;;;22.05;10.38;;;;;;;11.74;62.64;102264.81;5114123;28;20119;-68
2022/03/28 09:02:58;;;;;;;24.08;10.15;;;;;;;11.83;62.00;102255.88;5122204;27;20563;-67
2022/03/28 09:05:38;;;;;;;24.13;9.85;;;;;;;11.92;61.73;102252.25;5134649;27;20043;-67
2022/03/28 09:08:09;;;;;;;50.85;11.68;;;;;;;11.94;61.86;102253.97;5134814;27;20949;-68
2022/03/28 09:10:46;;;;;;;43.05;11.25;;;;;;;12.03;61.57;102253.03;5134727;27;20105;-67
2022/03/28 09:13:19;;;;;;;28.00;10.00;;;;;;;12.09;61.39;102249.41;5134693;27;20105;-67
2022/03/28 09:15:55;;;;;;;24.63;10.60;;;;;;;12.18;61.57;102249.28;5133996;27;20050;-68
2022/03/28 09:18:24;;;;;;;30.02;9.88;;;;;;;12.30;61.67;102244.72;5132675;27;20046;-67
2022/03/28 09:21:13;;;;;;;20.52;9.43;;;;;;;12.45;60.79;102235.66;5134072;27;20077;-67
2022/03/28 09:23:48;;;;;;;24.77;9.70;;;;;;;12.53;60.51;102231.97;5133644;27;20100;-68
2022/03/28 09:26:23;;;;;;;20.25;9.60;;;;;;;12.60;60.19;102235.41;5134234;27;20075;-67
2022/03/28 09:28:56;;;;;;;25.17;10.15;;;;;;;12.69;59.80;102226.44;5133549;27;20135;-67
2022/03/28 09:31:44;;;;;;;22.05;9.55;;;;;;;12.75;59.07;102231.63;5133596;27;20043;-67
2022/03/28 09:34:19;;;;;;;24.23;10.13;;;;;;;12.76;58.87;102230.72;5127076;27;20107;-68
2022/03/28 09:36:57;;;;;;;25.55;10.30;;;;;;;12.81;59.67;102235.94;5133588;27;20700;-67
2022/03/28 09:39:30;;;;;;;26.25;10.35;;;;;;;12.93;58.77;102224.25;5133418;27;20533;-67
2022/03/28 09:42:08;;;;;;;19.48;10.35;;;;;;;12.99;58.73;102225.00;5133496;27;20597;-67
2022/03/28 09:44:42;;;;;;;29.85;10.95;;;;;;;13.10;58.29;102218.66;5133510;27;20040;-67
2022/03/28 09:47:20;;;;;;;20.05;9.70;;;;;;;13.13;57.97;102218.59;5131692;27;20048;-66
2022/03/28 09:49:54;;;;;;;29.42;11.90;;;;;;;13.14;57.78;102221.22;5133336;27;20777;-66
2022/03/28 09:52:31;;;;;;;27.05;11.13;;;;;;;13.19;57.88;102216.72;5133301;27;20050;-67
2022/03/28 09:55:05;;;;;;;19.88;10.50;;;;;;;13.29;57.02;102221.81;5133501;27;20036;-67
2022/03/28 09:57:35;;;;;;;22.85;10.27;;;;;;;13.39;56.95;102202.22;5133461;27;20044;-67
2022/03/28 10:00:29;;;;;;;25.02;10.98;;;;;;;13.47;56.07;102194.13;5133230;27;20531;-67
2022/03/28 10:02:58;;;;;;;24.13;12.40;;;;;;;13.60;56.44;102200.91;5127975;27;20056;-66
2022/03/28 10:05:26;;;;;;;26.15;11.63;;;;;;;13.73;55.78;102204.19;5133056;27;20094;-66
2022/03/28 10:07:57;;;;;;;19.50;11.07;;;;;;;13.77;56.20;102197.03;5133311;27;20089;-67
2022/03/28 10:10:24;;;;;;;36.15;13.52;;;;;;;13.88;55.82;102195.00;5133065;27;20054;-68
2022/03/28 10:12:52;;;;;;;21.55;11.50;;;;;;;14.01;56.25;102198.25;5133356;27;20127;-67
2022/03/28 10:15:19;;;;;;;23.70;12.00;;;;;;;14.10;55.11;102203.34;5129342;27;20036;-66
2022/03/28 10:17:47;;;;;;;33.05;11.85;;;;;;;14.22;55.11;102186.25;5118287;27;20460;-67
2022/03/28 10:20:15;;;;;;;24.40;12.77;;;;;;;14.34;54.13;102184.22;5132743;27;20048;-67
2022/03/28 10:23:04;;;;;;;43.33;13.40;;;;;;;14.38;53.83;102185.88;5133157;27;20055;-67
2022/03/28 10:25:31;;;;;;;21.73;12.60;;;;;;;14.50;53.97;102185.56;5132985;27;20507;-67
2022/03/28 10:28:00;;;;;;;34.08;13.18;;;;;;;14.64;52.80;102174.59;5134329;27;20435;-67
2022/03/28 10:30:30;;;;;;;36.38;12.75;;;;;;;14.77;53.41;102171.63;5136775;27;20054;-67
2022/03/28 10:33:22;;;;;;;25.00;12.60;;;;;;;14.95;53.71;102167.63;5128561;27;20040;-68
2022/03/28 10:36:19;;;;;;;30.42;13.50;;;;;;;15.10;52.67;102159.25;5116113;27;20041;-67
2022/03/28 10:38:47;;;;;;;20.67;11.55;;;;;;;15.20;52.20;102171.34;5115829;27;20040;-67
2022/03/28 10:41:16;;;;;;;22.88;12.38;;;;;;;15.21;51.52;102166.88;5115762;27;20082;-67
2022/03/28 10:43:49;;;;;;;30.70;13.13;;;;;;;15.20;50.55;102159.84;5115393;28;20044;-68
2022/03/28 10:46:20;;;;;;;25.95;12.65;;;;;;;15.28;50.56;102149.84;5115877;27;20047;-67
2022/03/28 10:49:03;;;;;;;22.05;12.07;;;;;;;15.33;49.26;102157.69;5116078;27;20132;-67
2022/03/28 10:51:32;;;;;;;37.55;13.15;;;;;;;15.33;49.26;102153.25;5115427;27;20044;-67
2022/03/28 10:54:06;;;;;;;29.63;13.60;;;;;;;15.44;49.84;102147.59;5115631;27;20395;-67
2022/03/28 10:56:42;;;;;;;24.90;12.85;;;;;;;15.61;49.61;102147.09;5133354;27;20046;-67
2022/03/28 10:59:15;;;;;;;48.70;15.30;;;;;;;15.74;49.29;102144.06;5135563;27;20519;-68
2022/03/28 11:01:49;;;;;;;22.95;13.30;;;;;;;15.87;48.70;102147.22;5135905;27;20036;-69
2022/03/28 11:04:19;;;;;;;22.33;12.48;;;;;;;15.88;48.70;102138.34;5131122;27;20042;-67
2022/03/28 11:07:05;;;;;;;24.67;13.70;;;;;;;15.84;49.59;102135.78;5126142;27;20056;-67
2022/03/28 11:09:41;;;;;;;25.48;13.90;;;;;;;15.88;49.13;102127.72;5132320;27;20052;-67
2022/03/28 11:12:15;;;;;;;22.60;13.95;;;;;;;15.89;48.50;102118.81;5130810;27;20036;-66
2022/03/28 11:14:50;;;;;;;24.83;13.05;;;;;;;15.89;47.73;102122.31;5130539;27;20043;-66
2022/03/28 11:17:22;;;;;;;25.25;14.10;;;;;;;15.90;47.46;102126.72;5135474;27;20050;-67
2022/03/28 11:20:12;;;;;;;24.38;13.55;;;;;;;15.98;47.73;102119.38;5136278;27;20047;-67
2022/03/28 11:23:09;;;;;;;25.55;14.52;;;;;;;16.02;47.69;102112.19;5130925;27;20054;-68
2022/03/28 11:25:51;;;;;;;32.78;14.32;;;;;;;16.18;47.93;102111.66;5119830;27;20037;-68
2022/03/28 11:28:21;;;;;;;45.08;16.42;;;;;;;16.36;48.66;102111.03;5124142;27;20047;-68
2022/03/28 11:31:11;;;;;;;36.97;16.55;;;;;;;16.56;48.18;102101.47;5135833;27;20051;-68